createdAt,value
2019-02-25T00:00:49.487Z,1.30
2019-02-25T00:03:20.606Z,1.30
2019-02-25T00:05:49.847Z,1.30
2019-02-25T00:08:19.266Z,1.30
2019-02-25T00:10:53.507Z,1.40
2019-02-25T00:13:22.966Z,1.40
2019-02-25T00:15:52.206Z,1.30
2019-02-25T00:18:21.230Z,1.30
2019-02-25T00:20:52.326Z,1.40
2019-02-25T00:23:21.627Z,1.40
2019-02-25T00:25:53.066Z,1.40
2019-02-25T00:28:22.367Z,1.50
2019-02-25T00:31:00.290Z,1.50
2019-02-25T00:33:27.226Z,1.50
2019-02-25T00:35:56.887Z,1.60
2019-02-25T00:38:26.009Z,1.60
2019-02-25T00:40:55.465Z,1.60
2019-02-25T00:43:24.864Z,1.60
2019-02-25T00:45:54.326Z,1.60
2019-02-25T00:48:23.403Z,1.60
2019-02-25T00:50:52.604Z,1.60
2019-02-25T00:53:24.603Z,1.50
2019-02-25T00:55:54.008Z,1.50
2019-02-25T00:58:23.724Z,1.40
2019-02-25T01:00:53.270Z,1.40
2019-02-25T01:03:26.143Z,1.40
2019-02-25T01:05:56.543Z,1.40
2019-02-25T01:08:26.003Z,1.40
2019-02-25T01:10:55.143Z,1.40
2019-02-25T01:13:24.564Z,1.40
2019-02-25T01:15:53.984Z,1.40
2019-02-25T01:18:23.631Z,1.50
2019-02-25T01:20:52.690Z,1.50
2019-02-25T01:23:21.704Z,1.50
2019-02-25T01:25:51.224Z,1.50
2019-02-25T01:28:20.564Z,1.50
2019-02-25T01:30:49.984Z,1.50
2019-02-25T01:33:19.194Z,1.50
2019-02-25T01:35:48.489Z,1.50
2019-02-25T01:38:17.984Z,1.50
2019-02-25T01:40:47.264Z,1.50
2019-02-25T01:43:16.804Z,1.50
2019-02-25T01:45:46.372Z,1.50
2019-02-25T01:48:15.684Z,1.50
2019-02-25T01:50:44.863Z,1.50
2019-02-25T01:53:14.263Z,1.50
2019-02-25T01:55:46.221Z,1.50
2019-02-25T01:58:14.489Z,1.50
2019-02-25T02:00:43.593Z,1.50
2019-02-25T02:03:12.730Z,1.40
2019-02-25T02:05:42.213Z,1.40
2019-02-25T02:08:11.212Z,1.40
2019-02-25T02:10:40.203Z,1.40
2019-02-25T02:13:14.148Z,1.40
2019-02-25T02:15:39.964Z,1.50
2019-02-25T02:18:09.124Z,1.60
2019-02-25T02:20:38.805Z,1.50
2019-02-25T02:23:07.724Z,1.50
2019-02-25T02:25:39.873Z,1.40
2019-02-25T02:28:08.773Z,1.60
2019-02-25T02:30:37.859Z,1.60
2019-02-25T02:33:06.969Z,1.60
2019-02-25T02:35:35.863Z,1.50
2019-02-25T02:38:04.924Z,1.50
2019-02-25T02:40:34.250Z,1.60
2019-02-25T02:43:03.483Z,1.60
2019-02-25T02:45:47.652Z,1.60
2019-02-25T02:48:20.303Z,1.60
2019-02-25T02:50:49.664Z,1.60
2019-02-25T02:53:18.905Z,1.60
2019-02-25T02:55:48.205Z,1.70
2019-02-25T02:58:17.539Z,1.60
2019-02-25T03:00:46.874Z,1.60
2019-02-25T03:03:15.985Z,1.60
2019-02-25T03:05:47.965Z,1.60
2019-02-25T03:08:17.408Z,1.60
2019-02-25T03:10:46.428Z,1.60
2019-02-25T03:13:15.608Z,1.60
2019-02-25T03:15:45.026Z,1.60
2019-02-25T03:18:14.486Z,1.60
2019-02-25T03:20:43.690Z,1.70
2019-02-25T03:23:12.785Z,1.80
2019-02-25T03:25:41.769Z,1.80
2019-02-25T03:28:12.405Z,1.80
2019-02-25T03:30:42.691Z,1.80
2019-02-25T03:33:11.846Z,1.80
2019-02-25T03:35:40.846Z,1.80
2019-02-25T03:38:10.046Z,1.80
2019-02-25T03:40:39.126Z,1.80
2019-02-25T03:43:08.165Z,1.90
2019-02-25T03:45:37.306Z,1.90
2019-02-25T03:48:06.668Z,1.90
2019-02-25T03:50:35.825Z,2.00
2019-02-25T03:53:04.785Z,2.00
2019-02-25T03:55:34.472Z,2.00
2019-02-25T03:58:04.245Z,2.10
2019-02-25T04:00:33.715Z,2.20
2019-02-25T04:03:03.370Z,2.30
2019-02-25T04:05:32.550Z,2.20
2019-02-25T04:08:02.978Z,2.20
2019-02-25T04:10:32.033Z,2.20
2019-02-25T04:13:03.169Z,2.10
2019-02-25T04:15:39.924Z,2.10
2019-02-25T04:18:09.065Z,2.10
2019-02-25T04:20:38.444Z,2.20
2019-02-25T04:23:08.243Z,2.10
2019-02-25T04:25:37.443Z,2.10
2019-02-25T04:28:07.844Z,2.10
2019-02-25T04:30:36.886Z,2.10
2019-02-25T04:33:06.224Z,2.10
2019-02-25T04:35:35.782Z,2.10
2019-02-25T04:38:04.863Z,2.00
2019-02-25T04:40:34.343Z,2.00
2019-02-25T04:43:05.644Z,2.00
2019-02-25T04:45:35.284Z,2.00
2019-02-25T04:48:04.525Z,2.00
2019-02-25T04:50:34.004Z,1.90
2019-02-25T04:53:03.151Z,1.90
2019-02-25T04:55:33.846Z,1.90
2019-02-25T04:58:03.285Z,1.90
2019-02-25T05:00:32.188Z,1.90
2019-02-25T05:03:01.485Z,1.90
2019-02-25T05:05:30.584Z,1.90
2019-02-25T05:08:00.086Z,1.90
2019-02-25T05:10:29.514Z,1.80
2019-02-25T05:13:00.187Z,1.80
2019-02-25T05:15:31.329Z,1.80
2019-02-25T05:18:00.724Z,1.70
2019-02-25T05:20:35.923Z,1.70
2019-02-25T05:23:05.725Z,1.60
2019-02-25T05:25:37.379Z,1.50
2019-02-25T05:28:07.765Z,1.50
2019-02-25T05:30:37.217Z,1.40
2019-02-25T05:33:06.965Z,1.40
2019-02-25T05:35:35.969Z,1.30
2019-02-25T05:38:07.445Z,1.30
2019-02-25T05:40:37.185Z,1.20
2019-02-25T05:43:06.660Z,1.20
2019-02-25T05:45:37.502Z,1.20
2019-02-25T05:48:07.083Z,1.20
2019-02-25T05:50:36.823Z,1.30
2019-02-25T05:53:06.325Z,1.40
2019-02-25T05:55:35.669Z,1.30
2019-02-25T05:58:04.943Z,1.40
2019-02-25T06:00:35.154Z,1.40
2019-02-25T06:03:04.397Z,1.50
2019-02-25T06:05:35.110Z,1.60
2019-02-25T06:08:04.284Z,1.60
2019-02-25T06:10:33.248Z,1.70
2019-02-25T06:13:02.544Z,1.70
2019-02-25T06:15:31.744Z,1.70
2019-02-25T06:18:00.804Z,1.70
2019-02-25T06:20:30.164Z,1.80
2019-02-25T06:22:59.283Z,1.90
2019-02-25T06:25:30.106Z,2.10
2019-02-25T06:27:59.113Z,2.30
2019-02-25T06:30:27.975Z,2.50
2019-02-25T06:32:56.933Z,4.40
2019-02-25T06:35:25.849Z,6.80
2019-02-25T06:37:54.833Z,7.70
2019-02-25T06:40:23.741Z,9.50
2019-02-25T06:42:52.823Z,9.70
2019-02-25T06:45:36.873Z,10.50
2019-02-25T06:48:06.214Z,10.20
2019-02-25T06:50:35.534Z,8.30
2019-02-25T06:53:04.671Z,7.30
2019-02-25T06:55:33.703Z,7.50
2019-02-25T06:58:02.963Z,7.10
2019-02-25T07:00:31.898Z,6.20
2019-02-25T07:03:00.824Z,5.50
2019-02-25T07:05:34.064Z,4.90
2019-02-25T07:11:25.005Z,4.00
2019-02-25T07:14:23.763Z,3.70
2019-02-25T07:16:57.423Z,3.50
2019-02-25T07:19:46.724Z,3.50
2019-02-25T07:22:18.904Z,3.40
2019-02-25T07:25:09.083Z,3.40
2019-02-25T07:27:39.603Z,3.40
2019-02-25T07:30:22.143Z,3.50
2019-02-25T07:32:52.884Z,3.60
2019-02-25T07:35:29.725Z,4.10
2019-02-25T07:38:06.750Z,4.50
2019-02-25T07:40:52.765Z,5.20
2019-02-25T07:43:40.083Z,5.70
2019-02-25T07:46:12.406Z,5.80
2019-02-25T07:48:43.064Z,5.50
2019-02-25T07:51:16.864Z,5.50
2019-02-25T07:54:06.741Z,5.30
2019-02-25T07:56:51.504Z,5.00
2019-02-25T08:02:30.095Z,4.80
2019-02-25T08:05:03.310Z,4.80
2019-02-25T08:07:36.990Z,4.90
2019-02-25T08:10:28.949Z,4.90
2019-02-25T08:13:02.530Z,5.00
2019-02-25T08:15:45.289Z,5.20
2019-02-25T08:18:39.149Z,5.30
2019-02-25T08:21:12.950Z,5.50
2019-02-25T08:23:43.809Z,5.60
2019-02-25T08:26:14.582Z,5.70
2019-02-25T08:28:51.130Z,5.70
2019-02-25T08:31:27.789Z,5.80
2019-02-25T08:34:02.649Z,5.80
2019-02-25T08:37:02.151Z,5.80
2019-02-25T08:39:26.129Z,5.90
2019-02-25T08:41:59.746Z,6.20
2019-02-25T08:44:30.444Z,6.40
2019-02-25T08:47:01.203Z,6.50
2019-02-25T08:49:32.145Z,6.60
2019-02-25T08:52:04.024Z,6.80
2019-02-25T08:54:33.039Z,6.90
2019-02-25T08:57:04.347Z,7.10
2019-02-25T08:59:33.428Z,7.30
2019-02-25T09:02:07.525Z,7.40
2019-02-25T09:04:49.459Z,7.50
2019-02-25T09:07:18.950Z,7.50
2019-02-25T09:09:50.926Z,7.70
2019-02-25T09:12:19.947Z,7.90
2019-02-25T09:14:49.686Z,8.00
2019-02-25T09:17:18.646Z,8.00
2019-02-25T09:19:49.207Z,8.00
2019-02-25T09:22:18.413Z,8.00
2019-02-25T09:24:47.763Z,8.00
2019-02-25T09:27:20.004Z,8.00
2019-02-25T09:29:49.205Z,7.90
2019-02-25T09:32:19.073Z,7.80
2019-02-25T09:34:49.848Z,7.80
2019-02-25T09:37:19.135Z,7.70
2019-02-25T09:39:48.231Z,7.70
2019-02-25T09:42:24.652Z,7.70
2019-02-25T09:44:53.770Z,7.80
2019-02-25T09:47:23.090Z,7.90
2019-02-25T09:49:53.529Z,7.90
2019-02-25T09:52:22.724Z,8.00
2019-02-25T09:54:51.704Z,8.00
2019-02-25T09:57:34.043Z,8.00
2019-02-25T10:00:02.957Z,8.10
2019-02-25T10:02:31.979Z,8.10
2019-02-25T10:05:02.390Z,8.00
2019-02-25T10:07:31.527Z,8.00
2019-02-25T10:10:00.937Z,7.90
2019-02-25T10:12:29.996Z,8.00
2019-02-25T10:14:59.084Z,8.00
2019-02-25T10:17:28.229Z,8.10
2019-02-25T10:19:57.506Z,8.30
2019-02-25T10:22:26.626Z,8.50
2019-02-25T10:24:56.110Z,8.70
2019-02-25T10:27:25.289Z,8.60
2019-02-25T10:29:54.528Z,8.50
2019-02-25T10:32:25.443Z,8.50
2019-02-25T10:34:54.465Z,8.70
2019-02-25T10:37:25.028Z,8.80
2019-02-25T10:39:54.083Z,8.90
2019-02-25T10:42:23.044Z,9.10
2019-02-25T10:44:52.145Z,9.20
2019-02-25T10:47:31.584Z,9.30
2019-02-25T10:50:03.133Z,9.20
2019-02-25T10:52:32.086Z,9.20
2019-02-25T10:55:01.325Z,9.20
2019-02-25T10:57:31.450Z,9.20
2019-02-25T11:00:02.797Z,9.20
2019-02-25T11:02:31.932Z,9.10
2019-02-25T11:05:03.395Z,9.00
2019-02-25T11:07:34.749Z,9.00
2019-02-25T11:10:05.905Z,9.00
2019-02-25T11:12:35.286Z,9.00
2019-02-25T11:15:07.403Z,9.10
2019-02-25T11:17:37.703Z,9.10
2019-02-25T11:20:14.804Z,9.10
2019-02-25T11:22:46.005Z,9.10
2019-02-25T11:25:16.564Z,9.10
2019-02-25T11:27:46.004Z,9.20
2019-02-25T11:30:21.564Z,9.20
2019-02-25T11:32:51.695Z,9.30
2019-02-25T11:35:21.364Z,9.30
2019-02-25T11:37:54.834Z,9.30
2019-02-25T11:40:26.113Z,9.30
2019-02-25T11:42:55.343Z,9.30
2019-02-25T11:45:27.694Z,9.20
2019-02-25T11:47:56.927Z,9.20
2019-02-25T11:50:26.004Z,9.20
2019-02-25T11:52:55.327Z,9.20
2019-02-25T11:55:25.147Z,9.20
2019-02-25T11:57:54.804Z,9.20
2019-02-25T12:00:27.855Z,9.20
2019-02-25T12:02:57.034Z,9.20
2019-02-25T12:05:26.108Z,9.30
2019-02-25T12:08:02.000Z,9.30
2019-02-25T12:10:31.027Z,9.50
2019-02-25T12:12:59.963Z,9.60
2019-02-25T12:15:32.154Z,9.60
2019-02-25T12:18:01.485Z,9.80
2019-02-25T12:20:30.807Z,9.80
2019-02-25T12:23:01.531Z,9.90
2019-02-25T12:25:31.472Z,10.00
2019-02-25T12:28:00.433Z,10.10
2019-02-25T12:30:29.972Z,10.20
2019-02-25T12:32:59.524Z,10.30
2019-02-25T12:35:28.686Z,10.50
2019-02-25T12:37:58.084Z,10.60
2019-02-25T12:40:27.607Z,10.70
2019-02-25T12:42:57.027Z,10.70
2019-02-25T12:45:26.025Z,10.70
2019-02-25T12:47:58.464Z,10.70
2019-02-25T12:50:27.923Z,10.70
2019-02-25T12:52:57.023Z,10.80
2019-02-25T12:55:26.163Z,10.80
2019-02-25T12:57:55.284Z,10.80
2019-02-25T13:00:27.287Z,10.90
2019-02-25T13:02:56.910Z,10.80
2019-02-25T13:05:26.809Z,10.80
2019-02-25T13:07:56.169Z,10.80
2019-02-25T13:10:25.650Z,11.00
2019-02-25T13:12:58.665Z,11.00
2019-02-25T13:15:27.724Z,11.00
2019-02-25T13:17:56.946Z,11.00
2019-02-25T13:20:26.323Z,11.10
2019-02-25T13:22:55.305Z,11.20
2019-02-25T13:25:31.631Z,11.30
2019-02-25T13:28:02.092Z,11.40
2019-02-25T13:30:31.404Z,11.50
2019-02-25T13:33:00.764Z,11.60
2019-02-25T13:35:30.266Z,11.70
2019-02-25T13:37:59.504Z,11.80
2019-02-25T13:40:29.406Z,11.90
2019-02-25T13:43:01.567Z,11.90
2019-02-25T13:45:30.824Z,11.90
2019-02-25T13:48:00.283Z,11.90
2019-02-25T13:50:29.928Z,11.90
2019-02-25T13:52:59.608Z,11.90
2019-02-25T13:55:28.728Z,12.00
2019-02-25T13:57:58.299Z,12.00
2019-02-25T14:00:28.613Z,12.00
2019-02-25T14:03:00.585Z,12.10
2019-02-25T14:05:31.485Z,12.00
2019-02-25T14:08:02.324Z,12.10
2019-02-25T14:10:31.436Z,12.20
2019-02-25T14:13:01.526Z,12.20
2019-02-25T14:15:30.528Z,12.10
2019-02-25T14:17:59.670Z,11.90
2019-02-25T14:20:29.157Z,11.90
2019-02-25T14:23:00.618Z,12.00
2019-02-25T14:25:31.286Z,12.00
2019-02-25T14:28:02.702Z,12.00
2019-02-25T14:30:33.537Z,12.00
2019-02-25T14:33:02.410Z,12.00
2019-02-25T14:35:34.794Z,12.00
2019-02-25T14:38:10.077Z,11.90
2019-02-25T14:40:39.676Z,11.90
2019-02-25T14:43:10.535Z,11.90
2019-02-25T14:45:42.038Z,11.80
2019-02-25T14:48:12.557Z,11.80
2019-02-25T14:50:41.774Z,11.80
2019-02-25T14:53:14.129Z,11.70
2019-02-25T14:55:42.864Z,11.60
2019-02-25T14:58:17.532Z,11.70
2019-02-25T15:00:46.753Z,11.80
2019-02-25T15:03:24.781Z,11.90
2019-02-25T15:05:57.076Z,11.90
2019-02-25T15:08:28.268Z,11.90
2019-02-25T15:11:00.071Z,11.80
2019-02-25T15:13:28.139Z,11.80
2019-02-25T15:15:58.728Z,11.80
2019-02-25T15:18:29.060Z,11.80
2019-02-25T15:21:02.089Z,11.70
2019-02-25T15:23:30.448Z,11.70
2019-02-25T15:26:06.325Z,11.50
2019-02-25T15:28:32.746Z,11.40
2019-02-25T15:31:03.943Z,11.30
2019-02-25T15:33:33.637Z,11.30
2019-02-25T15:36:06.324Z,11.20
2019-02-25T15:38:37.055Z,11.20
2019-02-25T15:41:09.036Z,11.20
2019-02-25T15:43:40.425Z,11.10
2019-02-25T15:46:10.418Z,11.00
2019-02-25T15:48:41.491Z,11.00
2019-02-25T15:51:13.689Z,11.00
2019-02-25T15:53:46.206Z,10.90
2019-02-25T15:56:17.265Z,10.90
2019-02-25T15:58:50.524Z,10.80
2019-02-25T16:01:19.912Z,10.80
2019-02-25T16:03:49.049Z,10.70
2019-02-25T16:06:19.193Z,10.60
2019-02-25T16:08:52.248Z,10.50
2019-02-25T16:11:25.671Z,10.50
2019-02-25T16:13:57.820Z,10.40
2019-02-25T16:16:26.728Z,10.30
2019-02-25T16:18:56.393Z,10.20
2019-02-25T16:21:27.276Z,10.10
2019-02-25T16:23:59.584Z,10.10
2019-02-25T16:26:27.606Z,10.00
2019-02-25T16:28:58.841Z,9.90
2019-02-25T16:31:29.121Z,9.80
2019-02-25T16:33:59.813Z,9.70
2019-02-25T16:36:37.049Z,9.70
2019-02-25T16:39:05.338Z,9.60
2019-02-25T16:41:34.668Z,9.50
2019-02-25T16:44:06.765Z,9.40
2019-02-25T16:46:38.756Z,9.40
2019-02-25T16:49:06.651Z,9.30
2019-02-25T16:51:37.582Z,9.30
2019-02-25T16:54:11.073Z,9.30
2019-02-25T16:56:38.633Z,9.20
2019-02-25T16:59:10.861Z,9.20
2019-02-25T17:01:39.785Z,9.10
2019-02-25T17:04:11.723Z,9.10
2019-02-25T17:06:40.831Z,9.00
2019-02-25T17:09:11.844Z,8.90
2019-02-25T17:11:42.259Z,8.80
2019-02-25T17:14:12.471Z,8.70
2019-02-25T17:16:41.670Z,8.70
2019-02-25T17:19:10.790Z,8.60
2019-02-25T17:21:43.325Z,8.60
2019-02-25T17:24:16.832Z,8.60
2019-02-25T17:26:46.848Z,8.50
2019-02-25T17:29:16.209Z,8.50
2019-02-25T17:31:48.429Z,8.40
2019-02-25T17:34:19.172Z,8.40
2019-02-25T17:36:52.793Z,8.40
2019-02-25T17:39:22.849Z,8.30
2019-02-25T17:41:57.191Z,8.20
2019-02-25T17:44:32.029Z,8.00
2019-02-25T17:47:06.660Z,7.90
2019-02-25T17:49:38.050Z,7.80
2019-02-25T17:52:08.084Z,7.70
2019-02-25T17:54:39.907Z,7.70
2019-02-25T17:57:11.996Z,7.70
2019-02-25T17:59:44.181Z,7.70
2019-02-25T18:02:19.008Z,7.70
2019-02-25T18:04:50.992Z,7.60
2019-02-25T18:07:24.161Z,7.60
2019-02-25T18:10:01.198Z,7.50
2019-02-25T18:12:31.880Z,7.50
2019-02-25T18:15:03.585Z,7.50
2019-02-25T18:17:32.888Z,7.40
2019-02-25T18:20:02.077Z,7.40
2019-02-25T18:22:32.602Z,7.30
2019-02-25T18:25:04.223Z,7.30
2019-02-25T18:27:35.180Z,7.30
2019-02-25T18:30:16.483Z,7.20
2019-02-25T18:32:46.173Z,7.20
2019-02-25T18:35:21.151Z,7.10
2019-02-25T18:37:53.217Z,7.10
2019-02-25T18:40:22.953Z,7.00
2019-02-25T18:42:52.872Z,7.00
2019-02-25T18:45:22.754Z,7.00
2019-02-25T18:48:00.470Z,7.00
2019-02-25T18:50:33.073Z,7.00
2019-02-25T18:53:02.492Z,6.90
2019-02-25T18:55:36.998Z,6.90
2019-02-25T18:58:10.131Z,6.80
2019-02-25T19:00:42.496Z,6.80
2019-02-25T19:03:13.141Z,6.80
2019-02-25T19:05:42.500Z,6.70
2019-02-25T19:08:17.083Z,6.60
2019-02-25T19:10:48.100Z,6.50
2019-02-25T19:13:20.182Z,6.40
2019-02-25T19:15:52.537Z,6.40
2019-02-25T19:18:21.736Z,6.40
2019-02-25T19:20:50.977Z,6.40
2019-02-25T19:23:22.680Z,6.40
2019-02-25T19:25:52.090Z,6.40
2019-02-25T19:28:25.658Z,6.50
2019-02-25T19:30:55.431Z,6.50
2019-02-25T19:33:26.351Z,6.50
2019-02-25T19:35:58.152Z,6.50
2019-02-25T19:38:26.431Z,6.50
2019-02-25T19:40:57.547Z,6.50
2019-02-25T19:43:37.648Z,6.40
2019-02-25T19:46:08.735Z,6.30
2019-02-25T19:48:38.488Z,6.30
2019-02-25T19:51:09.036Z,6.30
2019-02-25T19:53:40.561Z,6.30
2019-02-25T19:56:11.036Z,6.30
2019-02-25T19:58:42.020Z,6.30
2019-02-25T20:01:11.740Z,6.30
2019-02-25T20:03:43.368Z,6.30
2019-02-25T20:06:16.714Z,6.30
2019-02-25T20:08:51.122Z,6.30
2019-02-25T20:11:21.667Z,6.30
2019-02-25T20:16:29.767Z,6.20
2019-02-25T20:18:58.610Z,6.20
2019-02-25T20:21:29.305Z,6.20
2019-02-25T20:26:33.469Z,6.20
2019-02-25T20:29:06.259Z,6.20
2019-02-25T20:31:36.769Z,6.20
2019-02-25T20:34:11.751Z,6.10
2019-02-25T20:36:42.047Z,6.10
2019-02-25T20:39:11.423Z,6.10
2019-02-25T20:41:40.868Z,6.10
2019-02-25T20:44:11.826Z,6.10
2019-02-25T20:46:41.089Z,6.10
2019-02-25T20:49:14.229Z,6.10
2019-02-25T20:51:43.477Z,6.30
2019-02-25T20:54:17.981Z,6.60
2019-02-25T20:56:56.396Z,6.80
2019-02-25T20:59:24.017Z,7.10
2019-02-25T21:01:54.225Z,7.20
2019-02-25T21:04:23.552Z,7.30
2019-02-25T21:06:55.347Z,7.30
2019-02-25T21:09:26.772Z,7.00
2019-02-25T21:11:56.767Z,6.60
2019-02-25T21:14:29.540Z,6.30
2019-02-25T21:16:59.974Z,6.30
2019-02-25T21:19:27.956Z,6.20
2019-02-25T21:21:59.675Z,6.20
2019-02-25T21:24:29.041Z,6.20
2019-02-25T21:27:03.576Z,6.30
2019-02-25T21:29:34.877Z,6.90
2019-02-25T21:32:04.534Z,7.80
2019-02-25T21:34:34.008Z,8.40
2019-02-25T21:37:03.233Z,8.80
2019-02-25T21:39:34.416Z,9.10
2019-02-25T21:42:06.219Z,9.20
2019-02-25T21:44:34.567Z,9.40
2019-02-25T21:47:06.867Z,9.50
2019-02-25T21:49:38.182Z,9.50
2019-02-25T21:52:10.855Z,9.20
2019-02-25T21:54:40.124Z,9.00
2019-02-25T21:57:09.721Z,8.80
2019-02-25T21:59:41.083Z,8.70
2019-02-25T22:02:10.483Z,8.50
2019-02-25T22:04:42.410Z,8.30
2019-02-25T22:07:10.483Z,8.10
2019-02-25T22:09:41.908Z,8.00
2019-02-25T22:12:10.364Z,7.90
2019-02-25T22:14:41.178Z,7.90
2019-02-25T22:17:10.383Z,7.90
2019-02-25T22:19:41.439Z,7.90
2019-02-25T22:22:10.963Z,7.80
2019-02-25T22:24:40.723Z,7.90
2019-02-25T22:27:11.825Z,7.90
2019-02-25T22:29:41.270Z,8.20
2019-02-25T22:32:11.925Z,8.30
2019-02-25T22:34:42.967Z,8.30
2019-02-25T22:37:14.501Z,8.50
2019-02-25T22:40:02.163Z,8.60
2019-02-25T22:42:33.419Z,8.60
2019-02-25T22:45:02.558Z,8.60
2019-02-25T22:47:35.132Z,8.70
2019-02-25T22:50:08.532Z,8.80
2019-02-25T22:52:37.832Z,8.80
2019-02-25T22:55:12.917Z,8.90
2019-02-25T22:57:46.680Z,8.90
2019-02-25T23:00:30.817Z,9.00
2019-02-25T23:03:00.929Z,8.90
2019-02-25T23:05:31.328Z,9.10
2019-02-25T23:08:00.773Z,9.30
2019-02-25T23:10:31.712Z,9.50
2019-02-25T23:13:03.931Z,9.80
2019-02-25T23:15:33.813Z,9.90
2019-02-25T23:18:05.609Z,9.70
2019-02-25T23:20:34.451Z,9.40
2019-02-25T23:23:07.251Z,9.40
2019-02-25T23:25:36.410Z,9.40
2019-02-25T23:28:05.489Z,9.40
2019-02-25T23:30:40.068Z,9.50
2019-02-25T23:33:11.895Z,9.60
2019-02-25T23:35:45.194Z,9.60
2019-02-25T23:38:25.989Z,9.50
2019-02-25T23:40:55.308Z,9.50
2019-02-25T23:43:24.348Z,9.50
2019-02-25T23:45:58.007Z,9.30
2019-02-25T23:48:32.935Z,9.10
2019-02-25T23:50:59.655Z,8.80
2019-02-25T23:53:31.087Z,8.50
2019-02-25T23:56:00.025Z,8.20
2019-02-25T23:58:29.524Z,8.10
